Terminal Aerodrome Forecast
Issued by NWS

Home | Current Version | Previous Version | Graphics & Text | Print | Product List | Glossary On
Versions: 1 2 3 4 5 6 7 8 9 10 11 12 13
835
FTUS43 KICT 090538
TAFHUT
TAF
KHUT 090538Z 0906/1006 32012KT P6SM SCT250
     FM091600 34016G23KT P6SM SCT060 BKN150
     FM100000 32006KT P6SM BKN100=

USA.gov is the U.S. government's official web portal to all federal, state and local government web resources and services.